Terminal Aerodrome Forecast
Issued by NWS

Home | Current Version | Previous Version | Graphics & Text | Print | Product List | Glossary On
Versions: 1 2 3 4 5 6 7 8 9 10 11 12 13 14 15
000
FTUS43 KMPX 182322
TAFRWF
TAF
KRWF 182322Z 1900/1924 30006KT P6SM FEW250
     FM190700 24005KT P6SM SKC
     FM191200 18005KT P6SM SKC
     FM191500 17010KT P6SM SKC
     FM191800 18015G24KT P6SM SKC=

USA.gov is the U.S. government's official web portal to all federal, state and local government web resources and services.